createdAt,value
2024-05-09T00:00:15.483Z,105.04
2024-05-09T00:01:09.983Z,105.29
2024-05-09T00:02:08.928Z,105.36
2024-05-09T00:03:10.267Z,105.49
2024-05-09T00:04:09.167Z,106.27
2024-05-09T00:05:09.247Z,106.26
2024-05-09T00:06:09.298Z,106.29
2024-05-09T00:07:09.224Z,105.47
2024-05-09T00:08:09.586Z,105.21
2024-05-09T00:09:09.291Z,106.18
2024-05-09T00:10:15.138Z,103.93
2024-05-09T00:11:10.454Z,104.07
2024-05-09T00:12:09.544Z,104.44
2024-05-09T00:13:09.970Z,104.70
2024-05-09T00:14:09.388Z,104.17
2024-05-09T00:15:09.350Z,105.71
2024-05-09T00:16:09.350Z,107.10
2024-05-09T00:17:09.371Z,104.40
2024-05-09T00:18:09.474Z,104.62
2024-05-09T00:19:09.529Z,103.52
2024-05-09T00:20:17.482Z,104.96
2024-05-09T00:21:10.463Z,105.10
2024-05-09T00:22:09.432Z,104.60
2024-05-09T00:23:09.696Z,105.14
2024-05-09T00:24:09.425Z,104.61
2024-05-09T00:25:09.484Z,105.19
2024-05-09T00:26:09.550Z,105.88
2024-05-09T00:27:11.265Z,105.27
2024-05-09T00:28:09.622Z,105.94
2024-05-09T00:29:09.690Z,103.29
2024-05-09T00:30:14.372Z,104.43
2024-05-09T00:31:10.691Z,104.53
2024-05-09T00:32:09.763Z,104.70
2024-05-09T00:33:10.933Z,104.00
2024-05-09T00:34:10.008Z,104.67
2024-05-09T00:35:09.775Z,105.90
2024-05-09T00:36:09.702Z,104.95
2024-05-09T00:37:09.699Z,104.60
2024-05-09T00:38:09.778Z,103.99
2024-05-09T00:39:09.714Z,103.62
2024-05-09T00:40:15.252Z,102.47
2024-05-09T00:41:10.755Z,102.60
2024-05-09T00:42:09.722Z,102.90
2024-05-09T00:43:09.779Z,103.28
2024-05-09T00:44:09.758Z,102.90
2024-05-09T00:45:09.718Z,101.24
2024-05-09T00:46:09.730Z,100.56
2024-05-09T00:47:09.990Z,103.99
2024-05-09T00:48:10.693Z,103.11
2024-05-09T00:49:10.026Z,102.18
2024-05-09T00:50:15.502Z,102.91
2024-05-09T00:51:11.219Z,103.07
2024-05-09T00:52:09.925Z,103.14
2024-05-09T00:53:10.115Z,102.56
2024-05-09T00:54:09.927Z,103.84
2024-05-09T00:55:09.925Z,103.31
2024-05-09T00:56:09.991Z,102.70
2024-05-09T00:57:15.379Z,100.84
2024-05-09T00:58:10.014Z,101.05
2024-05-09T00:59:10.101Z,101.41
2024-05-09T01:00:22.080Z,101.86
2024-05-09T01:01:11.209Z,101.03
2024-05-09T01:02:10.251Z,101.46
2024-05-09T01:03:12.072Z,101.68
2024-05-09T01:04:10.258Z,104.05
2024-05-09T01:05:10.283Z,104.59
2024-05-09T01:06:10.175Z,103.16
2024-05-09T01:07:10.180Z,103.35
2024-05-09T01:08:10.595Z,103.62
2024-05-09T01:09:10.134Z,102.14
2024-05-09T01:10:14.339Z,104.28
2024-05-09T01:11:11.390Z,104.41
2024-05-09T01:12:10.397Z,104.25
2024-05-09T01:13:10.171Z,103.62
2024-05-09T01:14:10.216Z,101.73
2024-05-09T01:15:10.178Z,103.10
2024-05-09T01:16:13.136Z,104.21
2024-05-09T01:17:10.213Z,103.36
2024-05-09T01:18:10.869Z,101.64
2024-05-09T01:19:10.329Z,101.81
2024-05-09T01:20:12.993Z,101.08
2024-05-09T01:21:11.397Z,101.85
2024-05-09T01:22:10.182Z,102.32
2024-05-09T01:23:10.484Z,102.68
2024-05-09T01:24:10.192Z,102.18
2024-05-09T01:25:10.256Z,101.45
2024-05-09T01:26:10.262Z,99.50
2024-05-09T01:27:10.245Z,101.66
2024-05-09T01:28:10.234Z,101.94
2024-05-09T01:29:10.288Z,102.28
2024-05-09T01:30:17.000Z,102.96
2024-05-09T01:31:11.315Z,103.01
2024-05-09T01:32:10.440Z,102.56
2024-05-09T01:33:11.998Z,99.06
2024-05-09T01:34:10.327Z,99.54
2024-05-09T01:35:10.450Z,101.74
2024-05-09T01:36:10.429Z,99.90
2024-05-09T01:37:10.514Z,100.21
2024-05-09T01:38:10.600Z,98.59
2024-05-09T01:39:10.600Z,99.25
2024-05-09T01:40:15.013Z,99.33
2024-05-09T01:41:11.695Z,99.50
2024-05-09T01:42:10.663Z,99.86
2024-05-09T01:43:11.729Z,99.84
2024-05-09T01:44:10.736Z,99.95
2024-05-09T01:45:10.693Z,100.69
2024-05-09T01:46:10.700Z,99.75
2024-05-09T01:47:10.848Z,99.81
2024-05-09T01:48:11.435Z,99.32
2024-05-09T01:49:10.836Z,99.13
2024-05-09T01:50:11.139Z,100.36
2024-05-09T01:51:11.060Z,98.15
2024-05-09T01:52:10.879Z,97.86
2024-05-09T01:53:11.239Z,99.98
2024-05-09T01:54:10.958Z,99.39
2024-05-09T01:55:11.161Z,97.97
2024-05-09T01:56:11.406Z,99.51
2024-05-09T01:57:11.279Z,99.16
2024-05-09T01:58:11.420Z,99.06
2024-05-09T01:59:11.553Z,99.52
2024-05-09T02:00:15.605Z,98.94
2024-05-09T02:01:11.675Z,99.01
2024-05-09T02:02:11.818Z,98.18
2024-05-09T02:03:14.635Z,99.00
2024-05-09T02:04:12.810Z,99.10
2024-05-09T02:05:11.836Z,99.44
2024-05-09T02:06:11.682Z,99.58
2024-05-09T02:07:11.617Z,99.61
2024-05-09T02:08:11.690Z,100.46
2024-05-09T02:09:11.631Z,101.45
2024-05-09T02:10:20.030Z,98.69
2024-05-09T02:11:12.827Z,98.81
2024-05-09T02:12:11.753Z,98.85
2024-05-09T02:13:11.626Z,99.78
2024-05-09T02:14:11.676Z,99.74
2024-05-09T02:15:11.670Z,98.20
2024-05-09T02:16:11.711Z,98.86
2024-05-09T02:17:11.746Z,97.96
2024-05-09T02:18:12.172Z,97.53
2024-05-09T02:19:11.908Z,96.12
2024-05-09T02:20:18.814Z,97.09
2024-05-09T02:21:12.712Z,97.26
2024-05-09T02:22:11.744Z,97.60
2024-05-09T02:23:12.110Z,97.98
2024-05-09T02:24:11.716Z,97.72
2024-05-09T02:25:11.744Z,97.21
2024-05-09T02:26:11.842Z,97.11
2024-05-09T02:27:11.730Z,97.00
2024-05-09T02:28:11.760Z,96.59
2024-05-09T02:29:11.881Z,96.82
2024-05-09T02:30:18.935Z,96.94
2024-05-09T02:31:12.909Z,97.13
2024-05-09T02:32:11.984Z,97.49
2024-05-09T02:33:13.833Z,97.58
2024-05-09T02:34:12.057Z,97.95
2024-05-09T02:35:11.965Z,98.91
2024-05-09T02:36:11.930Z,98.72
2024-05-09T02:37:11.939Z,97.72
2024-05-09T02:38:12.217Z,97.51
2024-05-09T02:39:11.952Z,96.61
2024-05-09T02:40:14.878Z,94.04
2024-05-09T02:41:12.999Z,94.31
2024-05-09T02:42:12.155Z,94.95
2024-05-09T02:43:12.787Z,94.90
2024-05-09T02:44:11.934Z,95.57
2024-05-09T02:45:11.938Z,96.96
2024-05-09T02:46:11.970Z,96.55
2024-05-09T02:47:14.448Z,96.51
2024-05-09T02:48:13.209Z,96.71
2024-05-09T02:49:12.540Z,96.68
2024-05-09T02:51:12.402Z,94.48
2024-05-09T02:52:12.437Z,95.84
2024-05-09T02:53:12.693Z,96.11
2024-05-09T02:54:12.538Z,95.44
2024-05-09T02:55:12.593Z,96.25
2024-05-09T02:56:12.716Z,95.84
2024-05-09T02:57:12.715Z,95.70
2024-05-09T02:58:12.786Z,94.04
2024-05-09T02:59:12.960Z,94.62
2024-05-09T03:00:18.861Z,94.05
2024-05-09T03:01:14.075Z,94.18
2024-05-09T03:02:13.108Z,94.42
2024-05-09T03:03:14.992Z,94.67
2024-05-09T03:04:13.077Z,96.37
2024-05-09T03:05:13.052Z,95.71
2024-05-09T03:06:13.045Z,95.48
2024-05-09T03:07:13.043Z,94.09
2024-05-09T03:08:13.250Z,92.87
2024-05-09T03:09:13.049Z,95.88
2024-05-09T03:10:18.504Z,95.15
2024-05-09T03:11:14.188Z,95.30
2024-05-09T03:12:13.176Z,95.79
2024-05-09T03:13:14.489Z,95.65
2024-05-09T03:14:13.288Z,94.95
2024-05-09T03:15:13.322Z,94.41
2024-05-09T03:16:13.370Z,95.10
2024-05-09T03:17:17.387Z,97.10
2024-05-09T03:18:13.915Z,96.32
2024-05-09T03:19:13.702Z,94.60
2024-05-09T03:20:20.412Z,95.68
2024-05-09T03:21:19.448Z,97.24
2024-05-09T03:22:13.474Z,97.31
2024-05-09T03:23:13.555Z,97.47
2024-05-09T03:24:13.444Z,97.47
2024-05-09T03:25:13.434Z,97.10
2024-05-09T03:26:13.475Z,95.52
2024-05-09T03:27:13.471Z,96.81
2024-05-09T03:28:13.462Z,94.90
2024-05-09T03:29:13.550Z,94.05
2024-05-09T03:30:22.128Z,92.10
2024-05-09T03:31:14.469Z,92.36
2024-05-09T03:32:13.594Z,92.78
2024-05-09T03:33:14.495Z,93.50
2024-05-09T03:34:13.499Z,94.06
2024-05-09T03:35:13.524Z,94.34
2024-05-09T03:36:13.471Z,92.86
2024-05-09T03:37:13.481Z,92.15
2024-05-09T03:38:13.719Z,94.61
2024-05-09T03:39:13.736Z,92.52
2024-05-09T03:40:20.408Z,91.56
2024-05-09T03:41:14.829Z,91.73
2024-05-09T03:42:13.821Z,92.02
2024-05-09T03:43:13.855Z,92.08
2024-05-09T03:44:13.828Z,91.92
2024-05-09T03:45:13.807Z,93.89
2024-05-09T03:46:13.847Z,93.11
2024-05-09T03:47:13.849Z,92.92
2024-05-09T03:48:14.018Z,92.81
2024-05-09T03:49:14.064Z,92.72
2024-05-09T03:50:18.473Z,92.16
2024-05-09T03:51:15.036Z,92.28
2024-05-09T03:52:14.028Z,91.44
2024-05-09T03:53:14.306Z,92.68
2024-05-09T03:54:14.023Z,91.63
2024-05-09T03:55:14.043Z,91.67
2024-05-09T03:56:14.083Z,91.40
2024-05-09T03:57:14.046Z,92.24
2024-05-09T03:58:14.072Z,92.56
2024-05-09T03:59:14.234Z,91.93
2024-05-09T04:00:18.301Z,91.10
2024-05-09T04:01:15.351Z,91.23
2024-05-09T04:02:14.322Z,91.45
2024-05-09T04:03:14.500Z,91.89
2024-05-09T04:04:14.346Z,91.93
2024-05-09T04:05:14.356Z,89.84
2024-05-09T04:06:14.329Z,92.02
2024-05-09T04:07:14.333Z,91.68
2024-05-09T04:08:14.460Z,89.55
2024-05-09T04:09:14.337Z,88.87
2024-05-09T04:10:23.669Z,91.19
2024-05-09T04:11:15.562Z,91.28
2024-05-09T04:12:14.515Z,91.53
2024-05-09T04:13:14.442Z,90.62
2024-05-09T04:14:14.485Z,90.80
2024-05-09T04:15:14.447Z,90.51
2024-05-09T04:16:14.469Z,91.61
2024-05-09T04:17:16.439Z,89.99
2024-05-09T04:18:14.606Z,89.64
2024-05-09T04:19:14.651Z,90.45
2024-05-09T04:20:24.275Z,89.16
2024-05-09T04:21:15.586Z,89.34
2024-05-09T04:22:14.557Z,89.90
2024-05-09T04:23:14.959Z,89.59
2024-05-09T04:24:14.560Z,90.75
2024-05-09T04:25:14.621Z,92.39
2024-05-09T04:26:14.636Z,89.73
2024-05-09T04:27:14.643Z,90.47
2024-05-09T04:28:14.707Z,89.32
2024-05-09T04:29:14.765Z,90.95
2024-05-09T04:30:21.758Z,89.19
2024-05-09T04:31:15.744Z,89.32
2024-05-09T04:32:14.931Z,89.36
2024-05-09T04:33:15.379Z,89.51
2024-05-09T04:34:14.947Z,90.29
2024-05-09T04:35:14.814Z,89.98
2024-05-09T04:36:14.779Z,88.87
2024-05-09T04:37:14.768Z,87.23
2024-05-09T04:38:15.667Z,89.53
2024-05-09T04:39:14.908Z,87.26
2024-05-09T04:40:24.222Z,89.48
2024-05-09T04:41:16.039Z,89.53
2024-05-09T04:42:14.962Z,89.05
2024-05-09T04:43:14.979Z,88.22
2024-05-09T04:44:15.010Z,89.30
2024-05-09T04:45:14.985Z,88.72
2024-05-09T04:46:14.954Z,89.72
2024-05-09T04:47:15.163Z,90.16
2024-05-09T04:48:15.159Z,89.18
2024-05-09T04:49:15.466Z,89.34
2024-05-09T04:50:25.183Z,87.28
2024-05-09T04:51:16.256Z,87.44
2024-05-09T04:52:15.160Z,87.75
2024-05-09T04:53:15.402Z,87.99
2024-05-09T04:54:26.106Z,87.66
2024-05-09T04:55:16.165Z,87.40
2024-05-09T04:56:15.216Z,87.84
2024-05-09T04:57:15.188Z,88.36
2024-05-09T04:58:15.162Z,88.27
2024-05-09T04:59:22.594Z,50.00
2024-05-09T05:00:31.805Z,50.00
2024-05-09T05:01:23.637Z,50.00
2024-05-09T05:02:22.779Z,50.00
2024-05-09T05:03:22.899Z,50.00
2024-05-09T05:04:22.647Z,50.00
2024-05-09T05:05:22.653Z,50.00
2024-05-09T05:06:22.600Z,51.84
2024-05-09T05:07:22.601Z,50.69
2024-05-09T05:08:22.735Z,51.04
2024-05-09T05:09:22.610Z,50.28
2024-05-09T05:10:29.736Z,50.94
2024-05-09T05:11:23.765Z,51.03
2024-05-09T05:12:22.788Z,51.10
2024-05-09T05:13:23.662Z,50.62
2024-05-09T05:14:22.663Z,50.03
2024-05-09T05:15:22.602Z,50.07
2024-05-09T05:16:22.608Z,51.46
2024-05-09T05:17:22.807Z,50.67
2024-05-09T05:18:22.941Z,52.26
2024-05-09T05:19:23.001Z,53.24
2024-05-09T05:20:30.683Z,53.02
2024-05-09T05:21:24.230Z,53.13
2024-05-09T05:22:27.857Z,52.05
2024-05-09T05:23:23.347Z,53.19
2024-05-09T05:24:23.075Z,53.32
2024-05-09T05:25:23.065Z,53.58
2024-05-09T05:26:23.096Z,52.84
2024-05-09T05:27:23.049Z,51.20
2024-05-09T05:28:23.218Z,50.78
2024-05-09T05:29:23.114Z,53.36
2024-05-09T05:30:28.976Z,52.77
2024-05-09T05:31:24.147Z,52.82
2024-05-09T05:32:23.197Z,52.84
2024-05-09T05:33:23.598Z,53.06
2024-05-09T05:34:23.076Z,52.80
2024-05-09T05:35:23.187Z,51.98
2024-05-09T05:36:23.090Z,52.34
2024-05-09T05:37:23.094Z,53.22
2024-05-09T05:38:26.263Z,52.02
2024-05-09T05:39:24.084Z,52.13
2024-05-09T05:40:32.143Z,52.33
2024-05-09T05:41:24.160Z,52.16
2024-05-09T05:42:26.185Z,52.46
2024-05-09T05:43:23.115Z,53.31
2024-05-09T05:44:23.171Z,52.71
2024-05-09T05:45:23.119Z,53.15
2024-05-09T05:46:23.121Z,50.19
2024-05-09T05:47:23.219Z,53.45
2024-05-09T05:48:23.370Z,51.48
2024-05-09T05:49:23.237Z,50.78
2024-05-09T05:50:28.051Z,53.48
2024-05-09T05:51:24.149Z,53.63
2024-05-09T05:52:23.145Z,53.54
2024-05-09T05:53:23.236Z,53.86
2024-05-09T05:54:23.147Z,53.46
2024-05-09T05:55:23.161Z,52.70
2024-05-09T05:56:23.205Z,53.69
2024-05-09T05:57:23.150Z,50.61
2024-05-09T05:58:23.127Z,51.17
2024-05-09T05:59:23.343Z,50.66
2024-05-09T06:00:29.932Z,51.16
2024-05-09T06:01:24.401Z,51.28
2024-05-09T06:02:23.602Z,51.51
2024-05-09T06:03:23.436Z,51.39
2024-05-09T06:04:23.515Z,51.54
2024-05-09T06:05:24.792Z,52.33
2024-05-09T06:06:23.526Z,51.02
2024-05-09T06:07:23.578Z,50.13
2024-05-09T06:08:24.698Z,51.33
2024-05-09T06:09:23.802Z,51.99
2024-05-09T06:10:26.454Z,50.25
2024-05-09T06:11:24.974Z,50.36
2024-05-09T06:12:23.883Z,50.63
2024-05-09T06:13:23.853Z,51.01
2024-05-09T06:14:23.947Z,50.83
2024-05-09T06:15:23.868Z,50.35
2024-05-09T06:16:23.851Z,51.50
2024-05-09T06:17:24.008Z,53.05
2024-05-09T06:18:24.207Z,50.71
2024-05-09T06:19:24.181Z,52.77
2024-05-09T06:20:31.956Z,53.02
2024-05-09T06:21:24.909Z,53.12
2024-05-09T06:22:23.894Z,53.36
2024-05-09T06:23:23.934Z,53.84
2024-05-09T06:24:23.910Z,52.88
2024-05-09T06:25:23.921Z,53.16
2024-05-09T06:26:23.920Z,53.77
2024-05-09T06:27:23.915Z,53.70
2024-05-09T06:28:23.934Z,53.06
2024-05-09T06:29:24.111Z,51.83
2024-05-09T06:30:30.794Z,52.32
2024-05-09T06:31:25.178Z,52.41
2024-05-09T06:32:24.416Z,52.40
2024-05-09T06:33:24.526Z,53.15
2024-05-09T06:34:24.313Z,52.49
2024-05-09T06:35:24.276Z,52.25
2024-05-09T06:36:24.212Z,51.22
2024-05-09T06:37:24.325Z,53.17
2024-05-09T06:38:24.351Z,52.72
2024-05-09T06:39:24.266Z,51.89
2024-05-09T06:40:29.310Z,52.90
2024-05-09T06:41:25.443Z,53.05
2024-05-09T06:42:24.351Z,53.23
2024-05-09T06:43:24.358Z,53.61
2024-05-09T06:44:24.410Z,52.75
2024-05-09T06:45:24.365Z,51.39
2024-05-09T06:46:24.442Z,50.01
2024-05-09T06:47:24.542Z,51.30
2024-05-09T06:48:24.577Z,51.57
2024-05-09T06:49:24.589Z,51.99
2024-05-09T06:50:28.168Z,51.91
2024-05-09T06:51:25.535Z,52.01
2024-05-09T06:52:24.462Z,52.69
2024-05-09T06:53:24.604Z,52.52
2024-05-09T06:54:24.483Z,51.81
2024-05-09T06:55:24.486Z,53.95
2024-05-09T06:56:24.618Z,53.38
2024-05-09T06:57:24.498Z,51.94
2024-05-09T06:58:24.544Z,52.86
2024-05-09T06:59:24.692Z,53.88
2024-05-09T07:00:30.913Z,50.20
2024-05-09T07:01:25.814Z,50.44
2024-05-09T07:02:24.795Z,50.74
2024-05-09T07:03:24.901Z,51.33
2024-05-09T07:04:24.953Z,51.92
2024-05-09T07:05:24.919Z,52.05
2024-05-09T07:06:24.812Z,51.95
2024-05-09T07:07:24.784Z,51.73
2024-05-09T07:08:24.835Z,51.45
2024-05-09T07:09:24.770Z,53.76
2024-05-09T07:10:29.196Z,50.16
2024-05-09T07:11:25.947Z,50.41
2024-05-09T07:12:24.876Z,50.79
2024-05-09T07:13:24.779Z,51.14
2024-05-09T07:14:24.812Z,52.41
2024-05-09T07:15:24.822Z,54.11
2024-05-09T07:16:24.815Z,50.49
2024-05-09T07:17:24.953Z,53.22
2024-05-09T07:18:25.039Z,54.26
2024-05-09T07:19:24.954Z,52.44
2024-05-09T07:20:32.499Z,52.39
2024-05-09T07:21:26.033Z,52.55
2024-05-09T07:22:24.986Z,52.66
2024-05-09T07:23:25.113Z,53.77
2024-05-09T07:24:25.002Z,53.83
2024-05-09T07:25:24.996Z,52.34
2024-05-09T07:26:25.039Z,52.31
2024-05-09T07:27:25.009Z,53.49
2024-05-09T07:28:25.047Z,52.64
2024-05-09T07:29:25.132Z,52.21
2024-05-09T07:30:32.706Z,52.61
2024-05-09T07:31:26.213Z,52.79
2024-05-09T07:32:25.340Z,53.18
2024-05-09T07:33:25.401Z,53.49
2024-05-09T07:34:25.401Z,53.74
2024-05-09T07:35:25.370Z,52.80
2024-05-09T07:36:25.224Z,52.08
2024-05-09T07:37:25.248Z,53.36
2024-05-09T07:38:25.407Z,53.71
2024-05-09T07:39:25.475Z,52.51
2024-05-09T07:40:33.014Z,53.52
2024-05-09T07:41:26.615Z,53.55
2024-05-09T07:42:25.625Z,53.58
2024-05-09T07:43:25.607Z,53.70
2024-05-09T07:44:25.654Z,53.32
2024-05-09T07:45:43.271Z,51.36
2024-05-09T07:48:56.939Z,53.68
2024-05-09T07:50:00.405Z,53.88
2024-05-09T07:53:32.290Z,53.88
2024-05-09T07:53:39.822Z,54.02
2024-05-09T07:54:26.835Z,54.02
2024-05-09T07:55:25.855Z,55.42
2024-05-09T07:56:26.288Z,57.10
2024-05-09T07:57:25.696Z,58.38
2024-05-09T07:58:25.680Z,58.62
2024-05-09T07:59:25.682Z,55.96
2024-05-09T08:00:31.073Z,56.18
2024-05-09T08:01:27.133Z,56.33
2024-05-09T08:02:25.794Z,56.39
2024-05-09T08:03:25.738Z,56.89
2024-05-09T08:04:26.800Z,53.69
2024-05-09T08:05:25.773Z,54.99
2024-05-09T08:06:25.771Z,56.24
2024-05-09T08:07:25.749Z,54.51
2024-05-09T08:08:25.742Z,53.40
2024-05-09T08:09:25.732Z,52.60
2024-05-09T08:10:28.937Z,54.59
2024-05-09T08:11:25.753Z,54.59
2024-05-09T08:12:25.774Z,53.73
2024-05-09T08:13:25.762Z,51.96
2024-05-09T08:14:25.753Z,52.94
2024-05-09T08:15:25.772Z,52.84
2024-05-09T08:16:25.814Z,53.19
2024-05-09T08:17:25.908Z,52.92
2024-05-09T08:18:25.983Z,50.24
2024-05-09T08:19:26.862Z,51.37
2024-05-09T08:20:31.118Z,50.88
2024-05-09T08:21:26.804Z,51.12
2024-05-09T08:22:25.758Z,51.62
2024-05-09T08:23:25.813Z,52.35
2024-05-09T08:24:25.763Z,53.83
2024-05-09T08:25:25.823Z,55.04
2024-05-09T08:26:25.800Z,53.13
2024-05-09T08:27:25.778Z,53.06
2024-05-09T08:28:25.919Z,52.84
2024-05-09T08:29:25.950Z,51.95
2024-05-09T08:30:33.384Z,53.79
2024-05-09T08:31:27.241Z,53.93
2024-05-09T08:32:26.058Z,53.97
2024-05-09T08:33:26.147Z,54.34
2024-05-09T08:34:26.157Z,50.46
2024-05-09T08:35:26.107Z,53.14
2024-05-09T08:36:26.073Z,52.43
2024-05-09T08:37:29.553Z,52.22
2024-05-09T08:38:27.094Z,52.41
2024-05-09T08:39:26.084Z,52.70
2024-05-09T08:40:33.493Z,52.70
2024-05-09T08:41:27.071Z,52.46
2024-05-09T08:42:26.082Z,52.87
2024-05-09T08:43:26.123Z,53.27
2024-05-09T08:44:26.086Z,53.54
2024-05-09T08:45:26.262Z,51.87
2024-05-09T08:46:26.178Z,54.03
2024-05-09T08:47:26.223Z,51.39
2024-05-09T08:48:26.364Z,53.80
2024-05-09T08:49:26.216Z,50.35
2024-05-09T08:50:32.459Z,53.38
2024-05-09T08:51:27.201Z,53.51
2024-05-09T08:52:26.157Z,53.74
2024-05-09T08:53:26.143Z,52.84
2024-05-09T08:54:26.455Z,53.73
2024-05-09T08:55:26.177Z,54.41
2024-05-09T08:56:26.186Z,51.46
2024-05-09T08:57:26.215Z,52.06
2024-05-09T08:58:26.241Z,52.53
2024-05-09T08:59:26.208Z,51.70
2024-05-09T09:00:34.118Z,52.77
2024-05-09T09:01:27.449Z,52.94
2024-05-09T09:02:26.551Z,52.96
2024-05-09T09:03:26.383Z,52.87
2024-05-09T09:04:26.486Z,53.01
2024-05-09T09:05:26.560Z,53.75
2024-05-09T09:06:26.384Z,53.34
2024-05-09T09:07:26.410Z,53.81
2024-05-09T09:08:26.363Z,52.50
2024-05-09T09:09:26.465Z,52.07
2024-05-09T09:10:31.813Z,54.54
2024-05-09T09:11:27.624Z,54.35
2024-05-09T09:12:26.534Z,54.84
2024-05-09T09:13:26.510Z,54.24
2024-05-09T09:14:26.501Z,52.92
2024-05-09T09:15:26.646Z,52.93
2024-05-09T09:16:26.574Z,52.87
2024-05-09T09:17:26.633Z,52.45
2024-05-09T09:18:26.865Z,52.17
2024-05-09T09:19:26.684Z,51.44
2024-05-09T09:20:33.958Z,53.42
2024-05-09T09:21:27.616Z,53.53
2024-05-09T09:22:26.539Z,53.64
2024-05-09T09:23:26.567Z,51.48
2024-05-09T09:24:26.630Z,52.79
2024-05-09T09:25:26.590Z,51.79
2024-05-09T09:26:26.613Z,52.55
2024-05-09T09:27:26.690Z,53.39
2024-05-09T09:28:26.606Z,51.16
2024-05-09T09:29:26.625Z,50.99
2024-05-09T09:30:35.356Z,54.58
2024-05-09T09:31:27.782Z,54.68
2024-05-09T09:32:26.772Z,54.62
2024-05-09T09:33:26.819Z,53.69
2024-05-09T09:34:26.814Z,54.07
2024-05-09T09:35:26.759Z,52.04
2024-05-09T09:36:34.410Z,50.00
2024-05-09T09:37:34.433Z,50.00
2024-05-09T09:38:34.458Z,50.00
2024-05-09T09:39:34.578Z,50.00
2024-05-09T09:40:37.301Z,50.00
2024-05-09T09:41:35.601Z,50.00
2024-05-09T09:42:34.622Z,50.00
2024-05-09T09:43:34.594Z,50.00
2024-05-09T09:44:37.341Z,50.00
2024-05-09T09:45:34.635Z,50.00
2024-05-09T09:46:34.635Z,50.00
2024-05-09T09:47:34.727Z,50.00
2024-05-09T09:48:34.778Z,50.00
2024-05-09T09:49:34.669Z,50.00
2024-05-09T09:50:35.307Z,53.04
2024-05-09T09:51:34.652Z,50.13
2024-05-09T09:52:34.635Z,50.00
2024-05-09T09:53:34.624Z,53.23
2024-05-09T09:54:34.675Z,51.66
2024-05-09T09:55:34.770Z,52.31
2024-05-09T09:56:34.908Z,54.15
2024-05-09T09:57:35.065Z,50.24
2024-05-09T09:58:35.135Z,50.23
2024-05-09T09:59:35.227Z,52.15
2024-05-09T10:00:35.585Z,51.77
2024-05-09T10:01:35.537Z,53.40
2024-05-09T10:02:35.727Z,51.37
2024-05-09T10:03:36.017Z,51.09
2024-05-09T10:04:35.905Z,52.05
2024-05-09T10:05:36.052Z,50.93
2024-05-09T10:06:36.076Z,52.73
2024-05-09T10:07:36.156Z,52.15
2024-05-09T10:08:36.274Z,52.84
2024-05-09T10:09:36.423Z,52.20
2024-05-09T10:10:36.612Z,53.60
2024-05-09T10:11:41.966Z,51.38
2024-05-09T10:12:37.654Z,51.55
2024-05-09T10:13:36.688Z,51.92
2024-05-09T10:14:36.615Z,51.96
2024-05-09T10:15:36.701Z,52.49
2024-05-09T10:16:36.645Z,51.37
2024-05-09T10:17:36.754Z,53.02
2024-05-09T10:18:36.795Z,52.48
2024-05-09T10:19:36.669Z,51.89
2024-05-09T10:20:36.745Z,53.00
2024-05-09T10:21:36.844Z,51.24
2024-05-09T10:22:36.927Z,52.32
2024-05-09T10:23:37.035Z,52.52
2024-05-09T10:24:37.217Z,52.32
2024-05-09T10:25:37.264Z,52.01
2024-05-09T10:26:37.374Z,53.32
2024-05-09T10:27:37.550Z,52.50
2024-05-09T10:28:37.611Z,51.81
2024-05-09T10:29:37.716Z,53.16
2024-05-09T10:30:38.525Z,51.25
2024-05-09T10:31:37.902Z,53.23
2024-05-09T10:32:37.963Z,51.25
2024-05-09T10:33:38.153Z,52.34
2024-05-09T10:34:38.070Z,52.09
2024-05-09T10:35:38.155Z,52.04
2024-05-09T10:36:38.267Z,51.85
2024-05-09T10:37:38.365Z,50.87
2024-05-09T10:38:38.482Z,53.27
2024-05-09T10:39:38.575Z,50.49
2024-05-09T10:40:38.686Z,51.83
2024-05-09T10:41:38.767Z,52.77
2024-05-09T10:42:38.893Z,52.14
2024-05-09T10:43:39.007Z,50.55
2024-05-09T10:44:39.117Z,53.52
2024-05-09T10:45:39.464Z,51.46
2024-05-09T10:46:39.339Z,51.63
2024-05-09T10:47:39.471Z,53.28
2024-05-09T10:48:39.749Z,51.07
2024-05-09T10:49:39.699Z,50.78
2024-05-09T10:50:39.786Z,54.04
2024-05-09T10:51:39.885Z,51.41
2024-05-09T10:52:40.004Z,53.12
2024-05-09T10:53:40.118Z,53.77
2024-05-09T10:54:40.274Z,52.74
2024-05-09T10:55:40.319Z,51.15
2024-05-09T10:56:40.414Z,52.68
2024-05-09T10:57:40.527Z,50.46
2024-05-09T10:58:42.736Z,51.34
2024-05-09T10:59:40.684Z,52.99
2024-05-09T11:00:40.821Z,53.31
2024-05-09T11:01:40.880Z,51.74
2024-05-09T11:02:40.955Z,52.23
2024-05-09T11:03:41.119Z,51.69
2024-05-09T11:04:41.179Z,51.85
2024-05-09T11:05:41.495Z,54.26
2024-05-09T11:06:41.265Z,53.62
2024-05-09T11:07:41.240Z,51.13
2024-05-09T11:08:41.295Z,52.47
2024-05-09T11:09:41.373Z,52.59
2024-05-09T11:10:41.438Z,53.83
2024-05-09T11:11:41.538Z,53.33
2024-05-09T11:12:41.517Z,52.67
2024-05-09T11:13:41.546Z,52.21
2024-05-09T11:14:41.549Z,52.49
2024-05-09T11:15:41.640Z,51.24
2024-05-09T11:16:41.662Z,52.72
2024-05-09T11:17:41.736Z,51.93
2024-05-09T11:18:42.048Z,52.17
2024-05-09T11:19:41.850Z,53.21
2024-05-09T11:20:41.944Z,51.85
2024-05-09T11:21:42.066Z,53.54
2024-05-09T11:22:42.125Z,51.85
2024-05-09T11:23:42.253Z,53.75
2024-05-09T11:24:42.369Z,53.17
2024-05-09T11:25:42.450Z,53.22
2024-05-09T11:26:42.564Z,53.75
2024-05-09T11:27:42.757Z,53.98
2024-05-09T11:28:42.746Z,52.90
2024-05-09T11:29:42.852Z,53.61
2024-05-09T11:30:43.000Z,53.68
2024-05-09T11:31:43.144Z,53.48
2024-05-09T11:32:43.241Z,53.20
2024-05-09T11:33:43.550Z,55.31
2024-05-09T11:34:43.397Z,53.41
2024-05-09T11:35:43.455Z,52.49
2024-05-09T11:36:43.606Z,53.44
2024-05-09T11:37:43.672Z,53.60
2024-05-09T11:38:43.759Z,53.33
2024-05-09T11:39:43.904Z,52.96
2024-05-09T11:40:44.050Z,52.97
2024-05-09T11:41:44.068Z,52.66
2024-05-09T11:42:44.352Z,52.12
2024-05-09T11:43:44.265Z,52.73
2024-05-09T11:44:44.360Z,53.17
2024-05-09T11:45:44.482Z,53.53
2024-05-09T11:46:44.563Z,52.62
2024-05-09T11:47:44.770Z,54.30
2024-05-09T11:48:44.946Z,52.91
2024-05-09T11:49:44.880Z,53.18
2024-05-09T11:50:44.943Z,53.21
2024-05-09T11:51:45.079Z,52.26
2024-05-09T11:52:45.156Z,54.24
2024-05-09T11:53:45.240Z,52.59
2024-05-09T11:54:45.379Z,52.69
2024-05-09T11:55:45.419Z,51.81
2024-05-09T11:56:45.535Z,52.90
2024-05-09T11:57:45.659Z,54.71
2024-05-09T11:58:45.752Z,52.16
2024-05-09T11:59:45.827Z,54.77
2024-05-09T12:00:46.453Z,53.57
2024-05-09T12:01:46.108Z,53.55
2024-05-09T12:02:46.112Z,55.30
2024-05-09T12:03:46.376Z,52.02
2024-05-09T12:04:46.453Z,53.95
2024-05-09T12:05:46.516Z,52.91
2024-05-09T12:06:46.543Z,53.70
2024-05-09T12:07:46.606Z,53.77
2024-05-09T12:08:46.733Z,53.56
2024-05-09T12:09:46.827Z,53.15
2024-05-09T12:10:47.127Z,53.49
2024-05-09T12:11:47.051Z,52.82
2024-05-09T12:12:47.124Z,54.10
2024-05-09T12:13:47.254Z,53.13
2024-05-09T12:14:47.300Z,52.55
2024-05-09T12:15:47.448Z,53.55
2024-05-09T12:16:47.622Z,50.78
2024-05-09T12:17:50.559Z,54.76
2024-05-09T12:18:47.687Z,53.49
2024-05-09T12:19:47.657Z,53.85
2024-05-09T12:20:47.619Z,54.75
2024-05-09T12:21:47.642Z,53.39
2024-05-09T12:22:47.634Z,55.25
2024-05-09T12:23:47.660Z,54.28
2024-05-09T12:24:47.642Z,53.29
2024-05-09T12:25:47.644Z,52.47
2024-05-09T12:26:47.626Z,52.89
2024-05-09T12:27:47.669Z,53.28
2024-05-09T12:28:47.629Z,54.70
2024-05-09T12:29:47.639Z,54.79
2024-05-09T12:30:47.652Z,53.32
2024-05-09T12:31:47.720Z,53.35
2024-05-09T12:32:47.829Z,52.25
2024-05-09T12:33:47.709Z,53.12
2024-05-09T12:34:47.661Z,52.06
2024-05-09T12:35:50.744Z,52.18
2024-05-09T12:36:47.689Z,52.33
2024-05-09T12:37:47.653Z,52.55
2024-05-09T12:38:47.644Z,52.82
2024-05-09T12:39:47.719Z,53.25
2024-05-09T12:40:47.829Z,51.78
2024-05-09T12:41:47.656Z,52.42
2024-05-09T12:42:47.642Z,52.47
2024-05-09T12:43:47.639Z,53.24
2024-05-09T12:44:47.644Z,50.91
2024-05-09T12:45:47.807Z,51.20
2024-05-09T12:46:47.666Z,51.20
2024-05-09T12:47:47.754Z,50.00
2024-05-09T12:48:47.902Z,52.24
2024-05-09T12:49:47.754Z,53.26
2024-05-09T12:50:47.897Z,52.46
2024-05-09T12:51:47.732Z,53.84
2024-05-09T12:52:47.660Z,52.40
2024-05-09T12:53:47.691Z,52.84
2024-05-09T12:54:47.744Z,52.87